Иркутск

Карта отелей и гостиниц, располагающихся рядом с аэропортом Иркутск :

Иркутск Иркутская область 52° 16' 1.56" N, 104° 23' 40.9812" E
Код аэродрома ИКАО
UIII
Код аэродрома RU
УИИИ
Координаты
N52.26710° E104.39472°
Превышение над уровнем моря
498
Основная полоса
12/30
Курс магнитный
117/297
Длина основной ВПП
3565
Ширина основной ВПП
45
Покрытие основной ВПП
Твёрдое (цементобетон)
Освещение ВПП
Постоянное
Тип: 
Аэродром
Класс аэродрома: 
Международный
Принадлежность: 
ГА
Статус: 
Действующий
Сайт: 
iktport.ru
E-mail аэродрома: 
office@airport.irk.ru
Страна: 
Россия
Регион: 
Иркутская область
Дополнительная информация: 
Горный. Международный аэропорт федерального значения в Восточной Сибири. Оператор: АО «Международный Аэропорт Иркутск». Аэропорт находится в 8 км от центра г. Иркутска. В н.в. аэропорт обслуживает внутренние и международные авиарейсы во Вьетнам, Киргизию, Монголию, Таджикистан, Тайланд и др.. Покрытие ИВПП - армобетон. Грузонапряженность ИВПП до 360 т. Военный индекс: XIII / ЬИИИ.
Схемы аэропортов: 
Погода: 

Авиационная погода в Иркутске

Регион: 
Погода METAR: 
UIII 282200Z 28005MPS CAVOK 01/M01 Q1014 R30/CLRD60 NOSIG RMK QFE716/0955
Время наблюдения
2020-10-28T22:00:00Z
Температура C
1.0
Точка росы
-1.0
Направление ветра
280
Скорость ветра (узлы)
10
Метео видимость
6.21
Явления погоды
Условия полета
VFR
Аэропорт подробнее: 

Найти трансфер

С помощью этой формы Вы можете найти трансфер из аэропорта Иркутск в город, аэропорт или вокзал:

Карта места

Javascript is required to view this map.

Погода в аэропортах:

Авиационная погода в Усть-Каменогорске

Регион: 
Погода METAR: 
UASK 282230Z 22002MPS 4500 -SHSN SCT006 OVC023CB M02/M02 Q1030 R30/520342 TEMPO 1500 SHSN SCT003 BKN011CB RMK QBB190 QFE746/0995
Время наблюдения
2020-10-28T22:30:00Z
Температура C
-2.0
Точка росы
-2.0
Направление ветра
220
Скорость ветра (узлы)
4
Метео видимость
2.8
Явления погоды
-SHSN
Условия полета
IFR
Аэропорт подробнее: 

Авиационная погода в Витебске

Регион: 
Погода METAR: 
UMII 281536Z 17004G07MPS 4300 BR FEW030 11/09 Q1017 R23/110075 TEMPO 2000 SCT005
Время наблюдения
2020-10-28T15:36:00Z
Температура C
11.0
Точка росы
9.0
Направление ветра
170
Скорость ветра (узлы)
8
Метео видимость
2.67
Явления погоды
BR
Условия полета
IFR

Авиационная погода в Каяани

Регион: 
Погода METAR: 
EFKI 282220Z AUTO 16010KT 9999 -RA OVC009 07/07 Q1002
Время наблюдения
2020-10-28T22:20:00Z
Температура C
7.0
Точка росы
7.0
Направление ветра
160
Скорость ветра (узлы)
10
Метео видимость
6.21
Явления погоды
-RA
Условия полета
IFR

Авиационная погода в Куусамо

Регион: 
Погода METAR: 
EFKS 282220Z AUTO 19009KT 9999 -SHRA BKN007 OVC028 05/04 Q1000
Время наблюдения
2020-10-28T22:20:00Z
Температура C
5.0
Точка росы
4.0
Направление ветра
190
Скорость ветра (узлы)
9
Метео видимость
6.21
Явления погоды
-SHRA
Условия полета
IFR